sensor_id;sensor_type;location;lat;lon;timestamp;P1;durP1;ratioP1;P2;durP2;ratioP2
75760;SDS011;64373;46.136;8.830;2024-03-02T00:00:20;0.47;;;0.25;;
75760;SDS011;64373;46.136;8.830;2024-03-02T00:02:47;0.82;;;0.28;;
75760;SDS011;64373;46.136;8.830;2024-03-02T00:05:17;0.30;;;0.10;;
75760;SDS011;64373;46.136;8.830;2024-03-02T00:07:44;0.15;;;0.10;;
75760;SDS011;64373;46.136;8.830;2024-03-02T00:10:13;0.22;;;0.20;;
75760;SDS011;64373;46.136;8.830;2024-03-02T00:12:41;0.73;;;0.40;;
75760;SDS011;64373;46.136;8.830;2024-03-02T00:18:03;0.10;;;0.10;;
75760;SDS011;64373;46.136;8.830;2024-03-02T00:20:30;0.10;;;0.10;;
75760;SDS011;64373;46.136;8.830;2024-03-02T00:23:15;0.10;;;0.10;;
75760;SDS011;64373;46.136;8.830;2024-03-02T00:25:42;0.32;;;0.17;;
75760;SDS011;64373;46.136;8.830;2024-03-02T00:31:01;0.70;;;0.10;;
75760;SDS011;64373;46.136;8.830;2024-03-02T00:33:32;0.15;;;0.10;;
75760;SDS011;64373;46.136;8.830;2024-03-02T00:35:59;0.10;;;0.03;;
75760;SDS011;64373;46.136;8.830;2024-03-02T00:38:25;0.00;;;0.00;;
75760;SDS011;64373;46.136;8.830;2024-03-02T00:40:51;0.05;;;0.00;;
75760;SDS011;64373;46.136;8.830;2024-03-02T00:46:03;0.17;;;0.10;;
75760;SDS011;64373;46.136;8.830;2024-03-02T00:48:29;0.10;;;0.10;;
75760;SDS011;64373;46.136;8.830;2024-03-02T00:50:56;0.20;;;0.10;;
75760;SDS011;64373;46.136;8.830;2024-03-02T00:53:23;0.20;;;0.10;;
75760;SDS011;64373;46.136;8.830;2024-03-02T00:55:52;0.10;;;0.10;;
75760;SDS011;64373;46.136;8.830;2024-03-02T00:58:17;0.22;;;0.17;;
75760;SDS011;64373;46.136;8.830;2024-03-02T01:00:43;0.10;;;0.10;;
75760;SDS011;64373;46.136;8.830;2024-03-02T01:03:08;1.55;;;0.20;;
75760;SDS011;64373;46.136;8.830;2024-03-02T01:05:35;0.30;;;0.20;;
75760;SDS011;64373;46.136;8.830;2024-03-02T01:08:01;0.00;;;0.00;;
75760;SDS011;64373;46.136;8.830;2024-03-02T01:10:27;0.05;;;0.05;;
75760;SDS011;64373;46.136;8.830;2024-03-02T01:12:53;0.45;;;0.15;;
75760;SDS011;64373;46.136;8.830;2024-03-02T01:15:18;1.02;;;0.15;;
75760;SDS011;64373;46.136;8.830;2024-03-02T01:17:44;0.20;;;0.10;;
75760;SDS011;64373;46.136;8.830;2024-03-02T01:20:10;0.00;;;0.00;;
75760;SDS011;64373;46.136;8.830;2024-03-02T01:22:36;0.10;;;0.00;;
75760;SDS011;64373;46.136;8.830;2024-03-02T01:25:02;0.10;;;0.10;;
75760;SDS011;64373;46.136;8.830;2024-03-02T01:27:28;0.00;;;0.00;;
75760;SDS011;64373;46.136;8.830;2024-03-02T01:29:54;1.10;;;0.10;;
75760;SDS011;64373;46.136;8.830;2024-03-02T01:32:19;0.08;;;0.00;;
75760;SDS011;64373;46.136;8.830;2024-03-02T01:34:45;0.85;;;0.00;;
75760;SDS011;64373;46.136;8.830;2024-03-02T01:37:11;0.20;;;0.10;;
75760;SDS011;64373;46.136;8.830;2024-03-02T01:39:36;0.10;;;0.03;;
75760;SDS011;64373;46.136;8.830;2024-03-02T01:42:02;0.20;;;0.10;;
75760;SDS011;64373;46.136;8.830;2024-03-02T01:44:27;0.20;;;0.20;;
75760;SDS011;64373;46.136;8.830;2024-03-02T01:46:53;0.03;;;0.00;;
75760;SDS011;64373;46.136;8.830;2024-03-02T01:49:18;2.45;;;0.22;;
75760;SDS011;64373;46.136;8.830;2024-03-02T01:51:44;0.82;;;0.30;;
75760;SDS011;64373;46.136;8.830;2024-03-02T01:54:09;0.50;;;0.10;;
75760;SDS011;64373;46.136;8.830;2024-03-02T01:56:35;0.52;;;0.10;;
75760;SDS011;64373;46.136;8.830;2024-03-02T01:59:01;3.80;;;0.10;;
75760;SDS011;64373;46.136;8.830;2024-03-02T02:01:26;0.50;;;0.10;;
75760;SDS011;64373;46.136;8.830;2024-03-02T02:03:52;15.40;;;0.63;;
75760;SDS011;64373;46.136;8.830;2024-03-02T02:06:17;1.20;;;0.15;;
75760;SDS011;64373;46.136;8.830;2024-03-02T02:08:43;0.20;;;0.10;;
75760;SDS011;64373;46.136;8.830;2024-03-02T02:11:08;0.15;;;0.00;;
75760;SDS011;64373;46.136;8.830;2024-03-02T02:13:34;0.65;;;0.13;;
75760;SDS011;64373;46.136;8.830;2024-03-02T02:16:08;1.80;;;0.20;;
75760;SDS011;64373;46.136;8.830;2024-03-02T02:18:34;0.13;;;0.10;;
75760;SDS011;64373;46.136;8.830;2024-03-02T02:21:01;0.65;;;0.20;;
75760;SDS011;64373;46.136;8.830;2024-03-02T02:23:27;0.10;;;0.03;;
75760;SDS011;64373;46.136;8.830;2024-03-02T02:25:52;0.10;;;0.10;;
75760;SDS011;64373;46.136;8.830;2024-03-02T02:28:18;0.17;;;0.03;;
75760;SDS011;64373;46.136;8.830;2024-03-02T02:30:43;0.60;;;0.10;;
75760;SDS011;64373;46.136;8.830;2024-03-02T02:33:09;0.98;;;0.10;;
75760;SDS011;64373;46.136;8.830;2024-03-02T02:35:34;0.10;;;0.10;;
75760;SDS011;64373;46.136;8.830;2024-03-02T02:38:00;0.40;;;0.25;;
75760;SDS011;64373;46.136;8.830;2024-03-02T02:40:26;0.73;;;0.10;;
75760;SDS011;64373;46.136;8.830;2024-03-02T02:42:54;0.17;;;0.05;;
75760;SDS011;64373;46.136;8.830;2024-03-02T02:45:19;0.30;;;0.00;;
75760;SDS011;64373;46.136;8.830;2024-03-02T02:47:45;0.00;;;0.00;;
75760;SDS011;64373;46.136;8.830;2024-03-02T02:50:11;0.00;;;0.00;;
75760;SDS011;64373;46.136;8.830;2024-03-02T02:52:37;0.20;;;0.13;;
75760;SDS011;64373;46.136;8.830;2024-03-02T02:55:06;0.32;;;0.10;;
75760;SDS011;64373;46.136;8.830;2024-03-02T02:57:33;0.25;;;0.10;;
75760;SDS011;64373;46.136;8.830;2024-03-02T03:00:12;0.00;;;0.00;;
75760;SDS011;64373;46.136;8.830;2024-03-02T03:05:09;0.08;;;0.03;;
75760;SDS011;64373;46.136;8.830;2024-03-02T03:07:35;0.52;;;0.10;;
75760;SDS011;64373;46.136;8.830;2024-03-02T03:10:02;0.10;;;0.10;;
75760;SDS011;64373;46.136;8.830;2024-03-02T03:12:28;0.13;;;0.10;;
75760;SDS011;64373;46.136;8.830;2024-03-02T03:14:54;0.20;;;0.10;;
75760;SDS011;64373;46.136;8.830;2024-03-02T03:17:21;0.65;;;0.00;;
75760;SDS011;64373;46.136;8.830;2024-03-02T03:19:46;0.10;;;0.03;;
75760;SDS011;64373;46.136;8.830;2024-03-02T03:22:12;1.77;;;0.10;;
75760;SDS011;64373;46.136;8.830;2024-03-02T03:24:38;0.52;;;0.10;;
75760;SDS011;64373;46.136;8.830;2024-03-02T03:27:04;0.57;;;0.00;;
75760;SDS011;64373;46.136;8.830;2024-03-02T03:29:30;0.10;;;0.00;;
75760;SDS011;64373;46.136;8.830;2024-03-02T03:31:55;0.90;;;0.00;;
75760;SDS011;64373;46.136;8.830;2024-03-02T03:34:20;0.40;;;0.00;;
75760;SDS011;64373;46.136;8.830;2024-03-02T03:36:46;0.60;;;0.10;;
75760;SDS011;64373;46.136;8.830;2024-03-02T03:39:11;0.40;;;0.10;;
75760;SDS011;64373;46.136;8.830;2024-03-02T03:41:37;0.05;;;0.00;;
75760;SDS011;64373;46.136;8.830;2024-03-02T03:44:02;0.10;;;0.10;;
75760;SDS011;64373;46.136;8.830;2024-03-02T03:46:28;0.30;;;0.20;;
75760;SDS011;64373;46.136;8.830;2024-03-02T03:48:54;0.28;;;0.05;;
75760;SDS011;64373;46.136;8.830;2024-03-02T03:51:21;0.05;;;0.00;;
75760;SDS011;64373;46.136;8.830;2024-03-02T03:53:49;0.00;;;0.00;;
75760;SDS011;64373;46.136;8.830;2024-03-02T03:56:15;2.45;;;0.10;;
75760;SDS011;64373;46.136;8.830;2024-03-02T03:58:40;0.38;;;0.03;;
75760;SDS011;64373;46.136;8.830;2024-03-02T04:01:06;0.00;;;0.00;;
75760;SDS011;64373;46.136;8.830;2024-03-02T04:03:32;0.45;;;0.00;;
75760;SDS011;64373;46.136;8.830;2024-03-02T04:06:00;0.70;;;0.15;;
75760;SDS011;64373;46.136;8.830;2024-03-02T04:08:25;0.10;;;0.05;;
75760;SDS011;64373;46.136;8.830;2024-03-02T04:10:51;0.00;;;0.00;;
75760;SDS011;64373;46.136;8.830;2024-03-02T04:13:17;0.30;;;0.10;;
75760;SDS011;64373;46.136;8.830;2024-03-02T04:15:42;0.10;;;0.00;;
75760;SDS011;64373;46.136;8.830;2024-03-02T04:18:08;1.00;;;0.10;;
75760;SDS011;64373;46.136;8.830;2024-03-02T04:20:33;0.30;;;0.08;;
75760;SDS011;64373;46.136;8.830;2024-03-02T04:22:59;2.63;;;0.10;;
75760;SDS011;64373;46.136;8.830;2024-03-02T04:25:24;0.35;;;0.08;;
75760;SDS011;64373;46.136;8.830;2024-03-02T04:27:50;1.10;;;0.10;;
75760;SDS011;64373;46.136;8.830;2024-03-02T04:30:15;0.00;;;0.00;;
75760;SDS011;64373;46.136;8.830;2024-03-02T04:32:41;0.30;;;0.10;;
75760;SDS011;64373;46.136;8.830;2024-03-02T04:35:08;0.13;;;0.08;;
75760;SDS011;64373;46.136;8.830;2024-03-02T04:37:34;0.20;;;0.00;;
75760;SDS011;64373;46.136;8.830;2024-03-02T04:40:00;0.00;;;0.00;;
75760;SDS011;64373;46.136;8.830;2024-03-02T04:42:25;0.30;;;0.00;;
75760;SDS011;64373;46.136;8.830;2024-03-02T04:44:51;4.38;;;0.20;;
75760;SDS011;64373;46.136;8.830;2024-03-02T04:47:17;0.10;;;0.10;;
75760;SDS011;64373;46.136;8.830;2024-03-02T04:49:42;0.32;;;0.10;;
75760;SDS011;64373;46.136;8.830;2024-03-02T04:52:08;2.08;;;0.10;;
75760;SDS011;64373;46.136;8.830;2024-03-02T04:54:34;3.22;;;0.28;;
75760;SDS011;64373;46.136;8.830;2024-03-02T04:57:20;0.08;;;0.00;;
75760;SDS011;64373;46.136;8.830;2024-03-02T04:59:45;0.00;;;0.00;;
75760;SDS011;64373;46.136;8.830;2024-03-02T05:02:11;0.75;;;0.03;;
75760;SDS011;64373;46.136;8.830;2024-03-02T05:04:39;0.20;;;0.05;;
75760;SDS011;64373;46.136;8.830;2024-03-02T05:07:08;0.20;;;0.20;;
75760;SDS011;64373;46.136;8.830;2024-03-02T05:09:33;0.52;;;0.10;;
75760;SDS011;64373;46.136;8.830;2024-03-02T05:11:59;0.35;;;0.10;;
75760;SDS011;64373;46.136;8.830;2024-03-02T05:14:42;1.75;;;0.10;;
75760;SDS011;64373;46.136;8.830;2024-03-02T05:17:08;0.00;;;0.00;;
75760;SDS011;64373;46.136;8.830;2024-03-02T05:19:33;2.47;;;0.10;;
75760;SDS011;64373;46.136;8.830;2024-03-02T05:21:59;0.63;;;0.10;;
75760;SDS011;64373;46.136;8.830;2024-03-02T05:24:25;0.43;;;0.10;;
75760;SDS011;64373;46.136;8.830;2024-03-02T05:26:53;0.30;;;0.10;;
75760;SDS011;64373;46.136;8.830;2024-03-02T05:29:18;1.17;;;0.10;;
75760;SDS011;64373;46.136;8.830;2024-03-02T05:31:44;0.00;;;0.00;;
75760;SDS011;64373;46.136;8.830;2024-03-02T05:34:10;0.80;;;0.10;;
75760;SDS011;64373;46.136;8.830;2024-03-02T05:36:35;0.00;;;0.00;;
75760;SDS011;64373;46.136;8.830;2024-03-02T05:39:02;0.05;;;0.00;;
75760;SDS011;64373;46.136;8.830;2024-03-02T05:41:30;0.15;;;0.00;;
75760;SDS011;64373;46.136;8.830;2024-03-02T05:43:55;0.10;;;0.00;;
75760;SDS011;64373;46.136;8.830;2024-03-02T05:46:21;0.00;;;0.00;;
75760;SDS011;64373;46.136;8.830;2024-03-02T05:48:47;1.00;;;0.00;;
75760;SDS011;64373;46.136;8.830;2024-03-02T05:51:12;0.80;;;0.00;;
75760;SDS011;64373;46.136;8.830;2024-03-02T05:53:38;3.25;;;0.10;;
75760;SDS011;64373;46.136;8.830;2024-03-02T05:56:04;0.20;;;0.08;;
75760;SDS011;64373;46.136;8.830;2024-03-02T05:58:30;2.00;;;0.32;;
75760;SDS011;64373;46.136;8.830;2024-03-02T06:01:23;1.48;;;0.10;;
75760;SDS011;64373;46.136;8.830;2024-03-02T06:03:54;0.00;;;0.00;;
75760;SDS011;64373;46.136;8.830;2024-03-02T06:06:24;0.13;;;0.00;;
75760;SDS011;64373;46.136;8.830;2024-03-02T06:08:49;0.30;;;0.10;;
75760;SDS011;64373;46.136;8.830;2024-03-02T06:11:15;0.00;;;0.00;;
75760;SDS011;64373;46.136;8.830;2024-03-02T06:13:40;0.30;;;0.10;;
75760;SDS011;64373;46.136;8.830;2024-03-02T06:16:06;0.85;;;0.20;;
75760;SDS011;64373;46.136;8.830;2024-03-02T06:18:33;0.40;;;0.20;;
75760;SDS011;64373;46.136;8.830;2024-03-02T06:20:59;0.17;;;0.17;;
75760;SDS011;64373;46.136;8.830;2024-03-02T06:23:26;0.50;;;0.28;;
75760;SDS011;64373;46.136;8.830;2024-03-02T06:25:52;0.25;;;0.15;;
75760;SDS011;64373;46.136;8.830;2024-03-02T06:28:18;0.88;;;0.10;;
75760;SDS011;64373;46.136;8.830;2024-03-02T06:30:43;0.38;;;0.20;;
75760;SDS011;64373;46.136;8.830;2024-03-02T06:33:10;1.52;;;0.13;;
75760;SDS011;64373;46.136;8.830;2024-03-02T06:35:36;0.25;;;0.10;;
75760;SDS011;64373;46.136;8.830;2024-03-02T06:38:01;0.28;;;0.20;;
75760;SDS011;64373;46.136;8.830;2024-03-02T06:40:27;0.10;;;0.10;;
75760;SDS011;64373;46.136;8.830;2024-03-02T06:42:52;0.90;;;0.10;;
75760;SDS011;64373;46.136;8.830;2024-03-02T06:45:18;0.32;;;0.13;;
75760;SDS011;64373;46.136;8.830;2024-03-02T06:47:43;1.17;;;0.20;;
75760;SDS011;64373;46.136;8.830;2024-03-02T06:50:09;1.38;;;0.30;;
75760;SDS011;64373;46.136;8.830;2024-03-02T06:52:35;0.50;;;0.30;;
75760;SDS011;64373;46.136;8.830;2024-03-02T06:55:01;0.45;;;0.38;;
75760;SDS011;64373;46.136;8.830;2024-03-02T06:57:27;0.75;;;0.22;;
75760;SDS011;64373;46.136;8.830;2024-03-02T06:59:52;0.93;;;0.25;;
75760;SDS011;64373;46.136;8.830;2024-03-02T07:02:20;1.08;;;0.30;;
75760;SDS011;64373;46.136;8.830;2024-03-02T07:04:46;1.15;;;0.20;;
75760;SDS011;64373;46.136;8.830;2024-03-02T07:07:12;1.10;;;0.38;;
75760;SDS011;64373;46.136;8.830;2024-03-02T07:09:38;1.35;;;0.40;;
75760;SDS011;64373;46.136;8.830;2024-03-02T07:12:03;0.57;;;0.32;;
75760;SDS011;64373;46.136;8.830;2024-03-02T07:14:29;0.40;;;0.30;;
75760;SDS011;64373;46.136;8.830;2024-03-02T07:17:18;0.82;;;0.60;;
75760;SDS011;64373;46.136;8.830;2024-03-02T07:19:43;0.90;;;0.65;;
75760;SDS011;64373;46.136;8.830;2024-03-02T07:22:09;1.10;;;0.75;;
75760;SDS011;64373;46.136;8.830;2024-03-02T07:24:43;2.45;;;0.82;;
75760;SDS011;64373;46.136;8.830;2024-03-02T07:27:11;1.67;;;0.93;;
75760;SDS011;64373;46.136;8.830;2024-03-02T07:29:37;1.17;;;1.00;;
75760;SDS011;64373;46.136;8.830;2024-03-02T07:32:03;2.25;;;1.13;;
75760;SDS011;64373;46.136;8.830;2024-03-02T07:34:29;1.65;;;1.17;;
75760;SDS011;64373;46.136;8.830;2024-03-02T07:36:55;2.78;;;1.08;;
75760;SDS011;64373;46.136;8.830;2024-03-02T07:39:21;2.60;;;1.00;;
75760;SDS011;64373;46.136;8.830;2024-03-02T07:41:47;0.88;;;0.70;;
75760;SDS011;64373;46.136;8.830;2024-03-02T07:44:12;1.58;;;0.70;;
75760;SDS011;64373;46.136;8.830;2024-03-02T07:46:43;0.90;;;0.55;;
75760;SDS011;64373;46.136;8.830;2024-03-02T07:49:09;1.48;;;0.70;;
75760;SDS011;64373;46.136;8.830;2024-03-02T07:51:34;0.90;;;0.70;;
75760;SDS011;64373;46.136;8.830;2024-03-02T07:54:01;1.65;;;0.80;;
75760;SDS011;64373;46.136;8.830;2024-03-02T07:56:27;1.25;;;0.82;;
75760;SDS011;64373;46.136;8.830;2024-03-02T07:58:52;36.35;;;2.80;;
75760;SDS011;64373;46.136;8.830;2024-03-02T08:01:18;174.27;;;8.05;;
75760;SDS011;64373;46.136;8.830;2024-03-02T08:03:43;202.93;;;11.05;;
75760;SDS011;64373;46.136;8.830;2024-03-02T08:06:18;146.82;;;8.27;;
75760;SDS011;64373;46.136;8.830;2024-03-02T08:08:47;7.35;;;3.25;;
75760;SDS011;64373;46.136;8.830;2024-03-02T08:11:12;12.55;;;3.35;;
75760;SDS011;64373;46.136;8.830;2024-03-02T08:13:38;5.78;;;3.03;;
75760;SDS011;64373;46.136;8.830;2024-03-02T08:16:03;4.07;;;2.55;;
75760;SDS011;64373;46.136;8.830;2024-03-02T08:18:32;3.83;;;2.30;;
75760;SDS011;64373;46.136;8.830;2024-03-02T08:20:58;3.13;;;2.10;;
75760;SDS011;64373;46.136;8.830;2024-03-02T08:23:24;1.92;;;1.38;;
75760;SDS011;64373;46.136;8.830;2024-03-02T08:25:49;3.33;;;2.08;;
75760;SDS011;64373;46.136;8.830;2024-03-02T08:28:15;4.88;;;2.10;;
75760;SDS011;64373;46.136;8.830;2024-03-02T08:30:40;4.43;;;2.00;;
75760;SDS011;64373;46.136;8.830;2024-03-02T08:33:06;4.25;;;2.50;;
75760;SDS011;64373;46.136;8.830;2024-03-02T08:35:31;7.85;;;2.83;;
75760;SDS011;64373;46.136;8.830;2024-03-02T08:38:04;10.07;;;5.38;;
75760;SDS011;64373;46.136;8.830;2024-03-02T08:40:29;9.57;;;5.10;;
75760;SDS011;64373;46.136;8.830;2024-03-02T08:42:56;8.25;;;5.10;;
75760;SDS011;64373;46.136;8.830;2024-03-02T08:45:22;11.02;;;6.45;;
75760;SDS011;64373;46.136;8.830;2024-03-02T08:47:47;8.63;;;4.65;;
75760;SDS011;64373;46.136;8.830;2024-03-02T08:50:13;1.90;;;1.20;;
75760;SDS011;64373;46.136;8.830;2024-03-02T08:52:38;0.50;;;0.40;;
75760;SDS011;64373;46.136;8.830;2024-03-02T08:55:04;0.63;;;0.30;;
75760;SDS011;64373;46.136;8.830;2024-03-02T08:57:31;0.30;;;0.30;;
75760;SDS011;64373;46.136;8.830;2024-03-02T08:59:56;0.30;;;0.20;;
75760;SDS011;64373;46.136;8.830;2024-03-02T09:02:22;0.38;;;0.20;;
75760;SDS011;64373;46.136;8.830;2024-03-02T09:04:48;0.30;;;0.15;;
75760;SDS011;64373;46.136;8.830;2024-03-02T09:07:14;0.20;;;0.10;;
75760;SDS011;64373;46.136;8.830;2024-03-02T09:09:40;0.10;;;0.10;;
75760;SDS011;64373;46.136;8.830;2024-03-02T09:12:06;0.30;;;0.10;;
75760;SDS011;64373;46.136;8.830;2024-03-02T09:14:32;0.47;;;0.38;;
75760;SDS011;64373;46.136;8.830;2024-03-02T09:16:57;0.50;;;0.30;;
75760;SDS011;64373;46.136;8.830;2024-03-02T09:19:23;1.13;;;0.70;;
75760;SDS011;64373;46.136;8.830;2024-03-02T09:21:48;0.40;;;0.10;;
75760;SDS011;64373;46.136;8.830;2024-03-02T09:24:15;0.17;;;0.17;;
75760;SDS011;64373;46.136;8.830;2024-03-02T09:26:41;0.38;;;0.10;;
75760;SDS011;64373;46.136;8.830;2024-03-02T09:29:06;0.35;;;0.10;;
75760;SDS011;64373;46.136;8.830;2024-03-02T09:31:32;0.00;;;0.00;;
75760;SDS011;64373;46.136;8.830;2024-03-02T09:33:57;0.40;;;0.20;;
75760;SDS011;64373;46.136;8.830;2024-03-02T09:36:22;0.63;;;0.38;;
75760;SDS011;64373;46.136;8.830;2024-03-02T09:38:48;0.82;;;0.60;;
75760;SDS011;64373;46.136;8.830;2024-03-02T09:41:16;1.90;;;1.23;;
75760;SDS011;64373;46.136;8.830;2024-03-02T09:43:42;1.98;;;1.40;;
75760;SDS011;64373;46.136;8.830;2024-03-02T09:46:10;0.93;;;0.93;;
75760;SDS011;64373;46.136;8.830;2024-03-02T09:48:37;1.23;;;1.05;;
75760;SDS011;64373;46.136;8.830;2024-03-02T09:51:03;0.40;;;0.40;;
75760;SDS011;64373;46.136;8.830;2024-03-02T09:53:30;0.50;;;0.50;;
75760;SDS011;64373;46.136;8.830;2024-03-02T09:55:58;0.60;;;0.50;;
75760;SDS011;64373;46.136;8.830;2024-03-02T09:58:27;0.68;;;0.65;;
75760;SDS011;64373;46.136;8.830;2024-03-02T10:00:52;0.30;;;0.30;;
75760;SDS011;64373;46.136;8.830;2024-03-02T10:03:18;1.00;;;0.77;;
75760;SDS011;64373;46.136;8.830;2024-03-02T10:05:44;0.65;;;0.32;;
75760;SDS011;64373;46.136;8.830;2024-03-02T10:08:11;0.43;;;0.30;;
75760;SDS011;64373;46.136;8.830;2024-03-02T10:10:37;0.90;;;0.57;;
75760;SDS011;64373;46.136;8.830;2024-03-02T10:13:08;1.05;;;0.73;;
75760;SDS011;64373;46.136;8.830;2024-03-02T10:15:35;0.88;;;0.80;;
75760;SDS011;64373;46.136;8.830;2024-03-02T10:18:02;0.80;;;0.50;;
75760;SDS011;64373;46.136;8.830;2024-03-02T10:20:31;1.70;;;0.30;;
75760;SDS011;64373;46.136;8.830;2024-03-02T10:25:37;0.60;;;0.50;;
75760;SDS011;64373;46.136;8.830;2024-03-02T10:28:02;0.35;;;0.35;;
75760;SDS011;64373;46.136;8.830;2024-03-02T10:30:31;0.50;;;0.32;;
75760;SDS011;64373;46.136;8.830;2024-03-02T10:32:56;0.30;;;0.30;;
75760;SDS011;64373;46.136;8.830;2024-03-02T10:35:22;0.32;;;0.30;;
75760;SDS011;64373;46.136;8.830;2024-03-02T10:37:48;0.30;;;0.30;;
75760;SDS011;64373;46.136;8.830;2024-03-02T10:40:14;0.10;;;0.10;;
75760;SDS011;64373;46.136;8.830;2024-03-02T10:42:40;0.20;;;0.03;;
75760;SDS011;64373;46.136;8.830;2024-03-02T10:45:07;0.30;;;0.10;;
75760;SDS011;64373;46.136;8.830;2024-03-02T10:47:37;0.00;;;0.00;;
75760;SDS011;64373;46.136;8.830;2024-03-02T10:50:06;0.30;;;0.10;;
75760;SDS011;64373;46.136;8.830;2024-03-02T10:52:39;0.10;;;0.03;;
75760;SDS011;64373;46.136;8.830;2024-03-02T10:55:09;0.10;;;0.00;;
75760;SDS011;64373;46.136;8.830;2024-03-02T10:57:42;0.98;;;0.00;;
75760;SDS011;64373;46.136;8.830;2024-03-02T11:00:11;0.10;;;0.10;;
75760;SDS011;64373;46.136;8.830;2024-03-02T11:02:43;0.00;;;0.00;;
75760;SDS011;64373;46.136;8.830;2024-03-02T11:05:13;0.00;;;0.00;;
75760;SDS011;64373;46.136;8.830;2024-03-02T11:07:44;0.00;;;0.00;;
75760;SDS011;64373;46.136;8.830;2024-03-02T11:10:10;0.10;;;0.00;;
75760;SDS011;64373;46.136;8.830;2024-03-02T11:12:38;0.80;;;0.00;;
75760;SDS011;64373;46.136;8.830;2024-03-02T11:15:05;0.30;;;0.10;;
75760;SDS011;64373;46.136;8.830;2024-03-02T11:17:37;0.00;;;0.00;;
75760;SDS011;64373;46.136;8.830;2024-03-02T11:20:05;0.50;;;0.10;;
75760;SDS011;64373;46.136;8.830;2024-03-02T11:22:34;0.20;;;0.10;;
75760;SDS011;64373;46.136;8.830;2024-03-02T11:25:01;0.38;;;0.30;;
75760;SDS011;64373;46.136;8.830;2024-03-02T11:30:56;0.90;;;0.80;;
75760;SDS011;64373;46.136;8.830;2024-03-02T11:35:37;0.32;;;0.28;;
75760;SDS011;64373;46.136;8.830;2024-03-02T11:38:12;0.57;;;0.57;;
75760;SDS011;64373;46.136;8.830;2024-03-02T11:40:41;0.00;;;0.00;;
75760;SDS011;64373;46.136;8.830;2024-03-02T11:43:07;0.00;;;0.00;;
75760;SDS011;64373;46.136;8.830;2024-03-02T11:45:35;0.35;;;0.17;;
75760;SDS011;64373;46.136;8.830;2024-03-02T11:48:05;1.00;;;0.30;;
75760;SDS011;64373;46.136;8.830;2024-03-02T11:50:49;0.85;;;0.60;;
75760;SDS011;64373;46.136;8.830;2024-03-02T11:53:15;0.50;;;0.50;;
75760;SDS011;64373;46.136;8.830;2024-03-02T11:55:41;0.65;;;0.40;;
75760;SDS011;64373;46.136;8.830;2024-03-02T11:58:09;0.50;;;0.50;;
75760;SDS011;64373;46.136;8.830;2024-03-02T12:00:35;1.10;;;0.20;;
75760;SDS011;64373;46.136;8.830;2024-03-02T12:05:36;0.10;;;0.10;;
75760;SDS011;64373;46.136;8.830;2024-03-02T12:08:06;0.45;;;0.30;;
75760;SDS011;64373;46.136;8.830;2024-03-02T12:10:32;0.10;;;0.10;;
75760;SDS011;64373;46.136;8.830;2024-03-02T12:13:02;0.00;;;0.00;;
75760;SDS011;64373;46.136;8.830;2024-03-02T12:15:30;0.40;;;0.10;;
75760;SDS011;64373;46.136;8.830;2024-03-02T12:17:57;1.23;;;0.28;;
75760;SDS011;64373;46.136;8.830;2024-03-02T12:20:25;0.22;;;0.20;;
75760;SDS011;64373;46.136;8.830;2024-03-02T12:22:52;0.50;;;0.10;;
75760;SDS011;64373;46.136;8.830;2024-03-02T12:25:22;0.10;;;0.10;;
75760;SDS011;64373;46.136;8.830;2024-03-02T12:27:49;0.80;;;0.70;;
75760;SDS011;64373;46.136;8.830;2024-03-02T12:30:16;0.95;;;0.80;;
75760;SDS011;64373;46.136;8.830;2024-03-02T12:32:42;1.90;;;0.95;;
75760;SDS011;64373;46.136;8.830;2024-03-02T12:35:11;2.58;;;1.85;;
75760;SDS011;64373;46.136;8.830;2024-03-02T12:40:09;1.35;;;0.73;;
75760;SDS011;64373;46.136;8.830;2024-03-02T12:42:36;0.50;;;0.45;;
75760;SDS011;64373;46.136;8.830;2024-03-02T12:45:02;0.10;;;0.10;;
75760;SDS011;64373;46.136;8.830;2024-03-02T12:47:29;0.17;;;0.10;;
75760;SDS011;64373;46.136;8.830;2024-03-02T12:49:54;1.20;;;0.20;;
75760;SDS011;64373;46.136;8.830;2024-03-02T12:52:21;0.20;;;0.10;;
75760;SDS011;64373;46.136;8.830;2024-03-02T12:54:47;0.40;;;0.20;;
75760;SDS011;64373;46.136;8.830;2024-03-02T12:57:18;1.40;;;0.80;;
75760;SDS011;64373;46.136;8.830;2024-03-02T12:59:47;0.90;;;0.43;;
75760;SDS011;64373;46.136;8.830;2024-03-02T13:02:19;0.30;;;0.30;;
75760;SDS011;64373;46.136;8.830;2024-03-02T13:04:52;0.43;;;0.30;;
75760;SDS011;64373;46.136;8.830;2024-03-02T13:07:21;0.57;;;0.20;;
75760;SDS011;64373;46.136;8.830;2024-03-02T13:09:52;0.20;;;0.15;;
75760;SDS011;64373;46.136;8.830;2024-03-02T13:12:20;0.30;;;0.20;;
75760;SDS011;64373;46.136;8.830;2024-03-02T13:14:52;1.35;;;0.50;;
75760;SDS011;64373;46.136;8.830;2024-03-02T13:17:18;0.52;;;0.32;;
75760;SDS011;64373;46.136;8.830;2024-03-02T13:22:39;1.30;;;0.20;;
75760;SDS011;64373;46.136;8.830;2024-03-02T13:25:05;0.10;;;0.10;;
75760;SDS011;64373;46.136;8.830;2024-03-02T13:27:31;0.10;;;0.10;;
75760;SDS011;64373;46.136;8.830;2024-03-02T13:29:59;0.20;;;0.20;;
75760;SDS011;64373;46.136;8.830;2024-03-02T13:32:25;1.25;;;0.25;;
75760;SDS011;64373;46.136;8.830;2024-03-02T13:34:51;0.43;;;0.25;;
75760;SDS011;64373;46.136;8.830;2024-03-02T13:37:16;0.38;;;0.20;;
75760;SDS011;64373;46.136;8.830;2024-03-02T13:39:42;0.20;;;0.17;;
75760;SDS011;64373;46.136;8.830;2024-03-02T13:42:08;0.35;;;0.20;;
75760;SDS011;64373;46.136;8.830;2024-03-02T13:44:35;0.10;;;0.10;;
75760;SDS011;64373;46.136;8.830;2024-03-02T13:47:01;0.85;;;0.20;;
75760;SDS011;64373;46.136;8.830;2024-03-02T13:49:27;1.98;;;0.75;;
75760;SDS011;64373;46.136;8.830;2024-03-02T13:52:02;1.13;;;0.20;;
75760;SDS011;64373;46.136;8.830;2024-03-02T13:54:30;0.25;;;0.25;;
75760;SDS011;64373;46.136;8.830;2024-03-02T13:56:56;1.30;;;0.30;;
75760;SDS011;64373;46.136;8.830;2024-03-02T13:59:23;0.80;;;0.10;;
75760;SDS011;64373;46.136;8.830;2024-03-02T14:01:50;0.32;;;0.10;;
75760;SDS011;64373;46.136;8.830;2024-03-02T14:04:15;0.73;;;0.20;;
75760;SDS011;64373;46.136;8.830;2024-03-02T14:06:42;0.10;;;0.10;;
75760;SDS011;64373;46.136;8.830;2024-03-02T14:09:08;0.30;;;0.20;;
75760;SDS011;64373;46.136;8.830;2024-03-02T14:11:34;0.10;;;0.10;;
75760;SDS011;64373;46.136;8.830;2024-03-02T14:14:00;1.00;;;0.10;;
75760;SDS011;64373;46.136;8.830;2024-03-02T14:16:26;0.10;;;0.10;;
75760;SDS011;64373;46.136;8.830;2024-03-02T14:18:52;0.30;;;0.30;;
75760;SDS011;64373;46.136;8.830;2024-03-02T14:21:18;0.22;;;0.20;;
75760;SDS011;64373;46.136;8.830;2024-03-02T14:23:43;1.02;;;0.10;;
75760;SDS011;64373;46.136;8.830;2024-03-02T14:26:08;0.55;;;0.15;;
75760;SDS011;64373;46.136;8.830;2024-03-02T14:28:34;0.45;;;0.10;;
75760;SDS011;64373;46.136;8.830;2024-03-02T14:30:59;0.10;;;0.10;;
75760;SDS011;64373;46.136;8.830;2024-03-02T14:33:26;0.40;;;0.10;;
75760;SDS011;64373;46.136;8.830;2024-03-02T14:35:52;0.20;;;0.10;;
75760;SDS011;64373;46.136;8.830;2024-03-02T14:38:18;0.20;;;0.10;;
75760;SDS011;64373;46.136;8.830;2024-03-02T14:40:44;0.10;;;0.10;;
75760;SDS011;64373;46.136;8.830;2024-03-02T14:43:09;0.65;;;0.10;;
75760;SDS011;64373;46.136;8.830;2024-03-02T14:45:35;0.00;;;0.00;;
75760;SDS011;64373;46.136;8.830;2024-03-02T14:48:02;0.10;;;0.10;;
75760;SDS011;64373;46.136;8.830;2024-03-02T14:50:28;0.55;;;0.20;;
75760;SDS011;64373;46.136;8.830;2024-03-02T14:52:53;0.10;;;0.10;;
75760;SDS011;64373;46.136;8.830;2024-03-02T14:55:22;0.10;;;0.10;;
75760;SDS011;64373;46.136;8.830;2024-03-02T14:57:48;1.27;;;0.13;;
75760;SDS011;64373;46.136;8.830;2024-03-02T15:00:14;0.73;;;0.10;;
75760;SDS011;64373;46.136;8.830;2024-03-02T15:02:40;0.80;;;0.08;;
75760;SDS011;64373;46.136;8.830;2024-03-02T15:05:05;1.10;;;0.80;;
75760;SDS011;64373;46.136;8.830;2024-03-02T15:07:31;2.28;;;1.13;;
75760;SDS011;64373;46.136;8.830;2024-03-02T15:09:57;3.38;;;1.38;;
75760;SDS011;64373;46.136;8.830;2024-03-02T15:12:23;2.60;;;1.52;;